sensor_id;sensor_type;location;lat;lon;timestamp;P1;durP1;ratioP1;P2;durP2;ratioP2
45326;SDS011;31062;49.678;24.560;2022-08-16T00:00:40;9.98;;;7.13;;
45326;SDS011;31062;49.678;24.560;2022-08-16T00:03:28;11.88;;;6.72;;
45326;SDS011;31062;49.678;24.560;2022-08-16T00:06:21;13.75;;;6.30;;
45326;SDS011;31062;49.678;24.560;2022-08-16T00:09:07;10.40;;;7.00;;
45326;SDS011;31062;49.678;24.560;2022-08-16T00:11:55;9.88;;;6.72;;
45326;SDS011;31062;49.678;24.560;2022-08-16T00:14:42;11.13;;;6.60;;
45326;SDS011;31062;49.678;24.560;2022-08-16T00:17:29;9.27;;;6.45;;
45326;SDS011;31062;49.678;24.560;2022-08-16T00:20:35;7.63;;;5.88;;
45326;SDS011;31062;49.678;24.560;2022-08-16T00:23:25;8.02;;;6.13;;
45326;SDS011;31062;49.678;24.560;2022-08-16T00:26:18;17.00;;;6.97;;
45326;SDS011;31062;49.678;24.560;2022-08-16T00:29:22;11.45;;;6.45;;
45326;SDS011;31062;49.678;24.560;2022-08-16T00:32:09;7.43;;;5.75;;
45326;SDS011;31062;49.678;24.560;2022-08-16T00:34:55;8.45;;;6.43;;
45326;SDS011;31062;49.678;24.560;2022-08-16T00:37:44;12.38;;;7.00;;
45326;SDS011;31062;49.678;24.560;2022-08-16T00:40:45;9.05;;;6.38;;
45326;SDS011;31062;49.678;24.560;2022-08-16T00:43:38;8.73;;;6.68;;
45326;SDS011;31062;49.678;24.560;2022-08-16T00:46:30;7.28;;;6.53;;
45326;SDS011;31062;49.678;24.560;2022-08-16T00:49:20;7.70;;;6.30;;
45326;SDS011;31062;49.678;24.560;2022-08-16T00:52:06;10.60;;;6.03;;
45326;SDS011;31062;49.678;24.560;2022-08-16T00:55:12;9.38;;;6.15;;
45326;SDS011;31062;49.678;24.560;2022-08-16T00:58:00;9.82;;;6.13;;
45326;SDS011;31062;49.678;24.560;2022-08-16T01:00:47;8.30;;;6.45;;
45326;SDS011;31062;49.678;24.560;2022-08-16T01:03:40;8.20;;;5.43;;
45326;SDS011;31062;49.678;24.560;2022-08-16T01:06:33;11.35;;;6.35;;
45326;SDS011;31062;49.678;24.560;2022-08-16T01:09:39;10.38;;;5.90;;
45326;SDS011;31062;49.678;24.560;2022-08-16T01:12:26;8.82;;;5.90;;
45326;SDS011;31062;49.678;24.560;2022-08-16T01:15:12;13.65;;;7.10;;
45326;SDS011;31062;49.678;24.560;2022-08-16T01:17:59;8.60;;;6.22;;
45326;SDS011;31062;49.678;24.560;2022-08-16T01:20:50;8.40;;;6.80;;
45326;SDS011;31062;49.678;24.560;2022-08-16T01:30:07;10.77;;;5.72;;
45326;SDS011;31062;49.678;24.560;2022-08-16T01:33:06;11.60;;;5.90;;
45326;SDS011;31062;49.678;24.560;2022-08-16T01:36:01;11.68;;;5.50;;
45326;SDS011;31062;49.678;24.560;2022-08-16T01:38:56;14.02;;;5.80;;
45326;SDS011;31062;49.678;24.560;2022-08-16T01:41:45;17.13;;;5.93;;
45326;SDS011;31062;49.678;24.560;2022-08-16T01:44:32;8.85;;;5.70;;
45326;SDS011;31062;49.678;24.560;2022-08-16T01:47:22;14.67;;;5.67;;
45326;SDS011;31062;49.678;24.560;2022-08-16T01:50:08;14.82;;;5.75;;
45326;SDS011;31062;49.678;24.560;2022-08-16T01:53:13;8.98;;;5.88;;
45326;SDS011;31062;49.678;24.560;2022-08-16T01:56:17;7.25;;;5.55;;
45326;SDS011;31062;49.678;24.560;2022-08-16T01:59:12;11.13;;;5.65;;
45326;SDS011;31062;49.678;24.560;2022-08-16T02:02:02;13.95;;;5.55;;
45326;SDS011;31062;49.678;24.560;2022-08-16T02:05:09;8.27;;;5.50;;
45326;SDS011;31062;49.678;24.560;2022-08-16T02:07:56;10.20;;;6.63;;
45326;SDS011;31062;49.678;24.560;2022-08-16T02:10:42;8.10;;;6.68;;
45326;SDS011;31062;49.678;24.560;2022-08-16T02:13:30;8.50;;;6.13;;
45326;SDS011;31062;49.678;24.560;2022-08-16T02:16:18;18.80;;;6.53;;
45326;SDS011;31062;49.678;24.560;2022-08-16T02:19:05;11.32;;;5.78;;
45326;SDS011;31062;49.678;24.560;2022-08-16T02:22:00;8.07;;;5.47;;
45326;SDS011;31062;49.678;24.560;2022-08-16T02:25:09;10.02;;;6.47;;
45326;SDS011;31062;49.678;24.560;2022-08-16T02:27:59;7.80;;;6.10;;
45326;SDS011;31062;49.678;24.560;2022-08-16T02:30:45;8.68;;;5.68;;
45326;SDS011;31062;49.678;24.560;2022-08-16T02:33:36;9.50;;;5.53;;
45326;SDS011;31062;49.678;24.560;2022-08-16T02:36:35;7.28;;;5.90;;
45326;SDS011;31062;49.678;24.560;2022-08-16T02:42:25;15.23;;;5.95;;
45326;SDS011;31062;49.678;24.560;2022-08-16T02:45:13;8.90;;;6.28;;
45326;SDS011;31062;49.678;24.560;2022-08-16T02:48:00;9.48;;;6.07;;
45326;SDS011;31062;49.678;24.560;2022-08-16T02:51:06;7.45;;;6.70;;
45326;SDS011;31062;49.678;24.560;2022-08-16T02:53:58;9.48;;;6.10;;
45326;SDS011;31062;49.678;24.560;2022-08-16T02:56:43;14.43;;;6.55;;
45326;SDS011;31062;49.678;24.560;2022-08-16T02:59:32;7.72;;;6.97;;
45326;SDS011;31062;49.678;24.560;2022-08-16T03:02:26;18.60;;;6.65;;
45326;SDS011;31062;49.678;24.560;2022-08-16T03:05:19;10.15;;;6.35;;
45326;SDS011;31062;49.678;24.560;2022-08-16T03:08:05;7.40;;;5.75;;
45326;SDS011;31062;49.678;24.560;2022-08-16T03:11:11;10.43;;;5.90;;
45326;SDS011;31062;49.678;24.560;2022-08-16T03:16:52;10.90;;;5.90;;
45326;SDS011;31062;49.678;24.560;2022-08-16T03:19:50;7.88;;;6.53;;
45326;SDS011;31062;49.678;24.560;2022-08-16T03:22:52;7.07;;;6.15;;
45326;SDS011;31062;49.678;24.560;2022-08-16T03:25:41;7.78;;;6.78;;
45326;SDS011;31062;49.678;24.560;2022-08-16T03:28:30;13.45;;;6.50;;
45326;SDS011;31062;49.678;24.560;2022-08-16T03:31:16;6.85;;;6.15;;
45326;SDS011;31062;49.678;24.560;2022-08-16T03:34:02;7.38;;;6.68;;
45326;SDS011;31062;49.678;24.560;2022-08-16T03:36:48;7.50;;;6.78;;
45326;SDS011;31062;49.678;24.560;2022-08-16T03:39:35;7.90;;;7.10;;
45326;SDS011;31062;49.678;24.560;2022-08-16T03:42:28;11.45;;;6.88;;
45326;SDS011;31062;49.678;24.560;2022-08-16T03:45:14;6.78;;;6.13;;
45326;SDS011;31062;49.678;24.560;2022-08-16T03:48:00;17.10;;;6.60;;
45326;SDS011;31062;49.678;24.560;2022-08-16T03:50:51;16.42;;;6.40;;
45326;SDS011;31062;49.678;24.560;2022-08-16T03:53:48;17.77;;;6.55;;
45326;SDS011;31062;49.678;24.560;2022-08-16T03:56:47;7.45;;;6.65;;
45326;SDS011;31062;49.678;24.560;2022-08-16T03:59:44;11.50;;;6.68;;
45326;SDS011;31062;49.678;24.560;2022-08-16T04:02:32;10.45;;;6.60;;
45326;SDS011;31062;49.678;24.560;2022-08-16T04:05:22;26.98;;;6.40;;
45326;SDS011;31062;49.678;24.560;2022-08-16T04:08:08;19.83;;;6.20;;
45326;SDS011;31062;49.678;24.560;2022-08-16T04:11:09;15.65;;;6.07;;
45326;SDS011;31062;49.678;24.560;2022-08-16T04:14:00;21.10;;;5.43;;
45326;SDS011;31062;49.678;24.560;2022-08-16T04:17:06;19.27;;;6.15;;
45326;SDS011;31062;49.678;24.560;2022-08-16T04:19:54;10.18;;;6.18;;
45326;SDS011;31062;49.678;24.560;2022-08-16T04:22:42;6.43;;;5.85;;
45326;SDS011;31062;49.678;24.560;2022-08-16T04:25:33;6.68;;;6.07;;
45326;SDS011;31062;49.678;24.560;2022-08-16T04:28:20;6.88;;;6.28;;
45326;SDS011;31062;49.678;24.560;2022-08-16T04:31:28;7.30;;;6.47;;
45326;SDS011;31062;49.678;24.560;2022-08-16T04:34:15;6.65;;;6.05;;
45326;SDS011;31062;49.678;24.560;2022-08-16T04:37:05;7.05;;;6.43;;
45326;SDS011;31062;49.678;24.560;2022-08-16T04:39:55;6.30;;;5.53;;
45326;SDS011;31062;49.678;24.560;2022-08-16T04:42:43;6.38;;;5.28;;
45326;SDS011;31062;49.678;24.560;2022-08-16T04:45:31;7.18;;;5.88;;
45326;SDS011;31062;49.678;24.560;2022-08-16T04:48:30;7.63;;;6.03;;
45326;SDS011;31062;49.678;24.560;2022-08-16T04:51:25;8.45;;;6.18;;
45326;SDS011;31062;49.678;24.560;2022-08-16T04:54:20;8.50;;;5.75;;
45326;SDS011;31062;49.678;24.560;2022-08-16T04:57:06;5.80;;;5.20;;
45326;SDS011;31062;49.678;24.560;2022-08-16T04:59:54;6.72;;;4.95;;
45326;SDS011;31062;49.678;24.560;2022-08-16T05:02:40;7.65;;;4.88;;
45326;SDS011;31062;49.678;24.560;2022-08-16T05:05:27;13.70;;;6.35;;
45326;SDS011;31062;49.678;24.560;2022-08-16T05:08:19;6.65;;;4.82;;
45326;SDS011;31062;49.678;24.560;2022-08-16T05:11:19;9.32;;;5.07;;
45326;SDS011;31062;49.678;24.560;2022-08-16T05:14:08;6.60;;;4.95;;
45326;SDS011;31062;49.678;24.560;2022-08-16T05:17:17;8.57;;;6.30;;
45326;SDS011;31062;49.678;24.560;2022-08-16T05:20:05;6.97;;;5.60;;
45326;SDS011;31062;49.678;24.560;2022-08-16T05:23:14;8.65;;;5.00;;
45326;SDS011;31062;49.678;24.560;2022-08-16T05:26:02;10.98;;;5.13;;
45326;SDS011;31062;49.678;24.560;2022-08-16T05:28:49;8.82;;;4.75;;
45326;SDS011;31062;49.678;24.560;2022-08-16T05:31:40;9.40;;;5.15;;
45326;SDS011;31062;49.678;24.560;2022-08-16T05:34:33;7.50;;;5.18;;
45326;SDS011;31062;49.678;24.560;2022-08-16T05:37:20;14.32;;;5.32;;
45326;SDS011;31062;49.678;24.560;2022-08-16T05:40:10;7.13;;;5.38;;
45326;SDS011;31062;49.678;24.560;2022-08-16T05:42:59;11.18;;;6.28;;
45326;SDS011;31062;49.678;24.560;2022-08-16T05:45:51;12.30;;;6.20;;
45326;SDS011;31062;49.678;24.560;2022-08-16T05:48:36;10.65;;;5.97;;
45326;SDS011;31062;49.678;24.560;2022-08-16T05:51:29;9.00;;;5.68;;
45326;SDS011;31062;49.678;24.560;2022-08-16T05:54:24;11.13;;;5.72;;
45326;SDS011;31062;49.678;24.560;2022-08-16T05:57:17;7.80;;;5.13;;
45326;SDS011;31062;49.678;24.560;2022-08-16T06:00:08;7.20;;;6.50;;
45326;SDS011;31062;49.678;24.560;2022-08-16T06:03:09;10.73;;;5.88;;
45326;SDS011;31062;49.678;24.560;2022-08-16T06:06:18;10.70;;;7.00;;
45326;SDS011;31062;49.678;24.560;2022-08-16T06:09:15;12.00;;;6.63;;
45326;SDS011;31062;49.678;24.560;2022-08-16T06:12:02;7.97;;;5.70;;
45326;SDS011;31062;49.678;24.560;2022-08-16T06:14:48;12.43;;;6.10;;
45326;SDS011;31062;49.678;24.560;2022-08-16T06:17:37;8.23;;;6.03;;
45326;SDS011;31062;49.678;24.560;2022-08-16T06:20:40;12.93;;;5.78;;
45326;SDS011;31062;49.678;24.560;2022-08-16T06:23:41;10.07;;;5.97;;
45326;SDS011;31062;49.678;24.560;2022-08-16T06:26:31;9.63;;;6.03;;
45326;SDS011;31062;49.678;24.560;2022-08-16T06:29:23;8.68;;;5.75;;
45326;SDS011;31062;49.678;24.560;2022-08-16T06:32:09;8.57;;;6.30;;
45326;SDS011;31062;49.678;24.560;2022-08-16T06:35:14;8.27;;;6.55;;
45326;SDS011;31062;49.678;24.560;2022-08-16T06:38:03;10.05;;;5.50;;
45326;SDS011;31062;49.678;24.560;2022-08-16T06:40:49;8.10;;;6.20;;
45326;SDS011;31062;49.678;24.560;2022-08-16T06:43:35;10.43;;;5.85;;
45326;SDS011;31062;49.678;24.560;2022-08-16T06:46:32;10.80;;;6.50;;
45326;SDS011;31062;49.678;24.560;2022-08-16T06:49:28;8.50;;;5.38;;
45326;SDS011;31062;49.678;24.560;2022-08-16T06:52:16;14.57;;;6.25;;
45326;SDS011;31062;49.678;24.560;2022-08-16T06:55:24;15.43;;;6.38;;
45326;SDS011;31062;49.678;24.560;2022-08-16T06:58:12;8.30;;;5.22;;
45326;SDS011;31062;49.678;24.560;2022-08-16T07:01:21;9.13;;;5.80;;
45326;SDS011;31062;49.678;24.560;2022-08-16T07:04:27;12.73;;;5.90;;
45326;SDS011;31062;49.678;24.560;2022-08-16T07:07:27;8.02;;;6.45;;
45326;SDS011;31062;49.678;24.560;2022-08-16T07:13:10;11.82;;;5.32;;
45326;SDS011;31062;49.678;24.560;2022-08-16T07:16:16;14.68;;;5.63;;
45326;SDS011;31062;49.678;24.560;2022-08-16T07:19:05;10.15;;;5.80;;
45326;SDS011;31062;49.678;24.560;2022-08-16T07:21:55;13.10;;;5.25;;
45326;SDS011;31062;49.678;24.560;2022-08-16T07:24:44;15.02;;;5.95;;
45326;SDS011;31062;49.678;24.560;2022-08-16T07:27:31;18.40;;;7.25;;
45326;SDS011;31062;49.678;24.560;2022-08-16T07:30:24;11.05;;;6.28;;
45326;SDS011;31062;49.678;24.560;2022-08-16T07:33:40;14.38;;;6.50;;
45326;SDS011;31062;49.678;24.560;2022-08-16T07:36:42;9.35;;;6.15;;
45326;SDS011;31062;49.678;24.560;2022-08-16T07:39:43;10.02;;;5.88;;
45326;SDS011;31062;49.678;24.560;2022-08-16T07:42:29;14.90;;;6.20;;
45326;SDS011;31062;49.678;24.560;2022-08-16T07:45:20;7.77;;;6.03;;
45326;SDS011;31062;49.678;24.560;2022-08-16T07:48:09;14.55;;;6.50;;
45326;SDS011;31062;49.678;24.560;2022-08-16T07:51:02;7.60;;;6.30;;
45326;SDS011;31062;49.678;24.560;2022-08-16T07:53:53;10.40;;;6.70;;
45326;SDS011;31062;49.678;24.560;2022-08-16T07:56:57;8.60;;;5.65;;
45326;SDS011;31062;49.678;24.560;2022-08-16T07:59:43;15.60;;;6.30;;
45326;SDS011;31062;49.678;24.560;2022-08-16T08:02:33;11.82;;;6.75;;
45326;SDS011;31062;49.678;24.560;2022-08-16T08:05:20;20.10;;;6.30;;
45326;SDS011;31062;49.678;24.560;2022-08-16T08:08:20;11.40;;;6.88;;
45326;SDS011;31062;49.678;24.560;2022-08-16T08:11:27;8.63;;;6.15;;
45326;SDS011;31062;49.678;24.560;2022-08-16T08:14:16;16.02;;;6.82;;
45326;SDS011;31062;49.678;24.560;2022-08-16T08:17:16;11.90;;;7.53;;
45326;SDS011;31062;49.678;24.560;2022-08-16T08:20:02;15.07;;;7.38;;
45326;SDS011;31062;49.678;24.560;2022-08-16T08:22:48;15.38;;;7.93;;
45326;SDS011;31062;49.678;24.560;2022-08-16T08:25:35;14.85;;;7.25;;
45326;SDS011;31062;49.678;24.560;2022-08-16T08:28:39;16.48;;;7.57;;
45326;SDS011;31062;49.678;24.560;2022-08-16T08:31:25;13.10;;;8.23;;
45326;SDS011;31062;49.678;24.560;2022-08-16T08:34:12;10.38;;;7.70;;
45326;SDS011;31062;49.678;24.560;2022-08-16T08:37:03;12.20;;;7.05;;
45326;SDS011;31062;49.678;24.560;2022-08-16T08:39:56;14.30;;;6.97;;
45326;SDS011;31062;49.678;24.560;2022-08-16T08:42:41;17.25;;;6.78;;
45326;SDS011;31062;49.678;24.560;2022-08-16T08:45:33;10.48;;;7.20;;
45326;SDS011;31062;49.678;24.560;2022-08-16T08:48:38;14.70;;;7.00;;
45326;SDS011;31062;49.678;24.560;2022-08-16T08:51:30;13.10;;;6.90;;
45326;SDS011;31062;49.678;24.560;2022-08-16T08:54:21;10.27;;;6.53;;
45326;SDS011;31062;49.678;24.560;2022-08-16T08:57:10;9.85;;;6.05;;
45326;SDS011;31062;49.678;24.560;2022-08-16T09:00:24;8.10;;;6.15;;
45326;SDS011;31062;49.678;24.560;2022-08-16T09:03:16;13.23;;;7.45;;
45326;SDS011;31062;49.678;24.560;2022-08-16T09:06:03;16.88;;;6.82;;
45326;SDS011;31062;49.678;24.560;2022-08-16T09:11:41;7.47;;;6.40;;
45326;SDS011;31062;49.678;24.560;2022-08-16T09:14:34;8.20;;;6.22;;
45326;SDS011;31062;49.678;24.560;2022-08-16T09:17:34;15.52;;;6.65;;
45326;SDS011;31062;49.678;24.560;2022-08-16T09:20:39;11.85;;;6.18;;
45326;SDS011;31062;49.678;24.560;2022-08-16T09:23:44;13.13;;;5.72;;
45326;SDS011;31062;49.678;24.560;2022-08-16T09:26:31;11.48;;;6.65;;
45326;SDS011;31062;49.678;24.560;2022-08-16T09:29:31;12.63;;;6.00;;
45326;SDS011;31062;49.678;24.560;2022-08-16T09:32:32;12.27;;;5.95;;
45326;SDS011;31062;49.678;24.560;2022-08-16T09:35:20;8.43;;;5.32;;
45326;SDS011;31062;49.678;24.560;2022-08-16T09:38:07;9.52;;;5.68;;
45326;SDS011;31062;49.678;24.560;2022-08-16T09:40:56;10.02;;;5.53;;
45326;SDS011;31062;49.678;24.560;2022-08-16T09:43:42;12.13;;;5.65;;
45326;SDS011;31062;49.678;24.560;2022-08-16T09:46:45;9.35;;;5.90;;
45326;SDS011;31062;49.678;24.560;2022-08-16T09:49:33;10.18;;;5.65;;
45326;SDS011;31062;49.678;24.560;2022-08-16T09:52:21;11.20;;;6.32;;
45326;SDS011;31062;49.678;24.560;2022-08-16T09:55:10;8.40;;;6.07;;
45326;SDS011;31062;49.678;24.560;2022-08-16T09:57:57;13.07;;;5.57;;
45326;SDS011;31062;49.678;24.560;2022-08-16T10:00:42;7.10;;;5.30;;
45326;SDS011;31062;49.678;24.560;2022-08-16T10:03:29;9.45;;;5.57;;
45326;SDS011;31062;49.678;24.560;2022-08-16T10:06:16;13.40;;;5.65;;
45326;SDS011;31062;49.678;24.560;2022-08-16T10:09:06;9.83;;;5.73;;
45326;SDS011;31062;49.678;24.560;2022-08-16T10:11:55;15.75;;;5.90;;
45326;SDS011;31062;49.678;24.560;2022-08-16T10:15:04;13.40;;;5.53;;
45326;SDS011;31062;49.678;24.560;2022-08-16T10:18:00;8.95;;;5.85;;
45326;SDS011;31062;49.678;24.560;2022-08-16T10:21:11;14.98;;;5.80;;
45326;SDS011;31062;49.678;24.560;2022-08-16T10:23:58;13.70;;;5.47;;
45326;SDS011;31062;49.678;24.560;2022-08-16T10:26:44;11.73;;;5.88;;
45326;SDS011;31062;49.678;24.560;2022-08-16T10:29:51;9.25;;;5.90;;
45326;SDS011;31062;49.678;24.560;2022-08-16T10:32:46;14.20;;;5.40;;
45326;SDS011;31062;49.678;24.560;2022-08-16T10:35:31;13.75;;;5.72;;
45326;SDS011;31062;49.678;24.560;2022-08-16T10:38:17;13.13;;;6.13;;
45326;SDS011;31062;49.678;24.560;2022-08-16T10:41:12;9.98;;;6.15;;
45326;SDS011;31062;49.678;24.560;2022-08-16T10:44:00;14.38;;;6.03;;
45326;SDS011;31062;49.678;24.560;2022-08-16T10:46:46;6.78;;;4.68;;
45326;SDS011;31062;49.678;24.560;2022-08-16T10:49:33;10.95;;;5.00;;
45326;SDS011;31062;49.678;24.560;2022-08-16T10:52:21;11.30;;;5.25;;
45326;SDS011;31062;49.678;24.560;2022-08-16T10:55:08;8.25;;;4.72;;
45326;SDS011;31062;49.678;24.560;2022-08-16T10:58:15;9.82;;;5.15;;
45326;SDS011;31062;49.678;24.560;2022-08-16T11:01:02;7.93;;;5.15;;
45326;SDS011;31062;49.678;24.560;2022-08-16T11:04:10;11.48;;;5.47;;
45326;SDS011;31062;49.678;24.560;2022-08-16T11:07:15;15.65;;;5.95;;
45326;SDS011;31062;49.678;24.560;2022-08-16T11:10:22;6.65;;;5.78;;
45326;SDS011;31062;49.678;24.560;2022-08-16T11:13:30;12.30;;;6.85;;
45326;SDS011;31062;49.678;24.560;2022-08-16T11:16:38;17.40;;;5.70;;
45326;SDS011;31062;49.678;24.560;2022-08-16T11:20:02;9.63;;;5.75;;
45326;SDS011;31062;49.678;24.560;2022-08-16T11:23:14;6.50;;;5.90;;
45326;SDS011;31062;49.678;24.560;2022-08-16T11:26:01;10.57;;;5.93;;
45326;SDS011;31062;49.678;24.560;2022-08-16T11:29:04;10.27;;;6.90;;
45326;SDS011;31062;49.678;24.560;2022-08-16T11:31:59;10.18;;;6.15;;
45326;SDS011;31062;49.678;24.560;2022-08-16T11:34:47;10.90;;;6.88;;
45326;SDS011;31062;49.678;24.560;2022-08-16T11:37:57;8.95;;;6.43;;
45326;SDS011;31062;49.678;24.560;2022-08-16T11:41:05;12.45;;;5.97;;
45326;SDS011;31062;49.678;24.560;2022-08-16T11:43:52;8.55;;;6.63;;
45326;SDS011;31062;49.678;24.560;2022-08-16T11:46:39;8.15;;;6.20;;
45326;SDS011;31062;49.678;24.560;2022-08-16T11:49:30;11.52;;;5.70;;
45326;SDS011;31062;49.678;24.560;2022-08-16T11:52:15;11.18;;;6.40;;
45326;SDS011;31062;49.678;24.560;2022-08-16T11:55:08;17.40;;;6.28;;
45326;SDS011;31062;49.678;24.560;2022-08-16T11:57:56;7.63;;;5.55;;
45326;SDS011;31062;49.678;24.560;2022-08-16T12:00:45;8.63;;;5.25;;
45326;SDS011;31062;49.678;24.560;2022-08-16T12:03:37;11.85;;;5.75;;
45326;SDS011;31062;49.678;24.560;2022-08-16T12:06:26;10.52;;;6.07;;
45326;SDS011;31062;49.678;24.560;2022-08-16T12:09:15;10.02;;;5.53;;
45326;SDS011;31062;49.678;24.560;2022-08-16T12:12:01;9.23;;;5.38;;
45326;SDS011;31062;49.678;24.560;2022-08-16T12:14:50;12.45;;;5.70;;
45326;SDS011;31062;49.678;24.560;2022-08-16T12:17:44;9.20;;;5.50;;
45326;SDS011;31062;49.678;24.560;2022-08-16T12:20:34;7.90;;;5.55;;
45326;SDS011;31062;49.678;24.560;2022-08-16T12:23:22;13.95;;;6.00;;
45326;SDS011;31062;49.678;24.560;2022-08-16T12:26:09;9.73;;;6.43;;
45326;SDS011;31062;49.678;24.560;2022-08-16T12:28:54;6.60;;;5.13;;
45326;SDS011;31062;49.678;24.560;2022-08-16T12:31:41;12.82;;;5.60;;
45326;SDS011;31062;49.678;24.560;2022-08-16T12:34:46;10.07;;;5.30;;
45326;SDS011;31062;49.678;24.560;2022-08-16T12:37:39;9.60;;;5.43;;
45326;SDS011;31062;49.678;24.560;2022-08-16T12:40:28;13.85;;;5.72;;
45326;SDS011;31062;49.678;24.560;2022-08-16T12:43:19;13.93;;;5.40;;
45326;SDS011;31062;49.678;24.560;2022-08-16T12:46:08;6.47;;;5.22;;
45326;SDS011;31062;49.678;24.560;2022-08-16T12:48:55;9.00;;;6.22;;
45326;SDS011;31062;49.678;24.560;2022-08-16T12:51:44;10.13;;;7.40;;
45326;SDS011;31062;49.678;24.560;2022-08-16T12:54:44;9.10;;;6.50;;
45326;SDS011;31062;49.678;24.560;2022-08-16T12:57:39;11.68;;;7.20;;
45326;SDS011;31062;49.678;24.560;2022-08-16T13:00:28;11.18;;;7.07;;
45326;SDS011;31062;49.678;24.560;2022-08-16T13:03:18;10.15;;;7.13;;
45326;SDS011;31062;49.678;24.560;2022-08-16T13:06:06;13.82;;;6.82;;
45326;SDS011;31062;49.678;24.560;2022-08-16T13:08:52;11.05;;;5.90;;
45326;SDS011;31062;49.678;24.560;2022-08-16T13:11:41;12.15;;;6.22;;
45326;SDS011;31062;49.678;24.560;2022-08-16T13:14:42;14.10;;;6.78;;
45326;SDS011;31062;49.678;24.560;2022-08-16T13:17:29;10.18;;;5.97;;
45326;SDS011;31062;49.678;24.560;2022-08-16T13:20:16;13.10;;;6.30;;
45326;SDS011;31062;49.678;24.560;2022-08-16T13:23:06;14.45;;;6.70;;
45326;SDS011;31062;49.678;24.560;2022-08-16T13:25:55;9.63;;;5.67;;
45326;SDS011;31062;49.678;24.560;2022-08-16T13:28:43;7.68;;;6.88;;
45326;SDS011;31062;49.678;24.560;2022-08-16T13:31:32;10.68;;;6.97;;
45326;SDS011;31062;49.678;24.560;2022-08-16T13:34:18;8.35;;;7.45;;
45326;SDS011;31062;49.678;24.560;2022-08-16T13:37:04;13.85;;;7.25;;
45326;SDS011;31062;49.678;24.560;2022-08-16T13:39:50;9.95;;;7.35;;
45326;SDS011;31062;49.678;24.560;2022-08-16T13:42:36;9.57;;;6.57;;
45326;SDS011;31062;49.678;24.560;2022-08-16T13:45:28;10.93;;;6.95;;
45326;SDS011;31062;49.678;24.560;2022-08-16T13:48:21;13.25;;;7.30;;
45326;SDS011;31062;49.678;24.560;2022-08-16T13:51:29;10.25;;;6.18;;
45326;SDS011;31062;49.678;24.560;2022-08-16T13:54:15;8.68;;;5.60;;
45326;SDS011;31062;49.678;24.560;2022-08-16T13:57:06;7.82;;;5.03;;
45326;SDS011;31062;49.678;24.560;2022-08-16T13:59:56;8.55;;;5.60;;
45326;SDS011;31062;49.678;24.560;2022-08-16T14:02:42;9.73;;;6.05;;
45326;SDS011;31062;49.678;24.560;2022-08-16T14:05:31;12.27;;;5.72;;
45326;SDS011;31062;49.678;24.560;2022-08-16T14:08:17;11.77;;;5.03;;
45326;SDS011;31062;49.678;24.560;2022-08-16T14:11:11;7.22;;;5.20;;
45326;SDS011;31062;49.678;24.560;2022-08-16T14:13:58;8.05;;;5.43;;
45326;SDS011;31062;49.678;24.560;2022-08-16T14:16:44;5.50;;;4.88;;
45326;SDS011;31062;49.678;24.560;2022-08-16T14:19:30;6.45;;;5.70;;
45326;SDS011;31062;49.678;24.560;2022-08-16T14:22:21;10.45;;;5.20;;
45326;SDS011;31062;49.678;24.560;2022-08-16T14:25:18;9.85;;;6.28;;
45326;SDS011;31062;49.678;24.560;2022-08-16T14:28:06;14.80;;;6.40;;
45326;SDS011;31062;49.678;24.560;2022-08-16T14:30:54;9.88;;;5.53;;
45326;SDS011;31062;49.678;24.560;2022-08-16T14:33:40;11.00;;;6.40;;
45326;SDS011;31062;49.678;24.560;2022-08-16T14:36:25;7.70;;;5.40;;
45326;SDS011;31062;49.678;24.560;2022-08-16T14:39:15;5.38;;;4.68;;
45326;SDS011;31062;49.678;24.560;2022-08-16T14:42:05;7.68;;;5.78;;
45326;SDS011;31062;49.678;24.560;2022-08-16T14:44:54;8.98;;;6.38;;
45326;SDS011;31062;49.678;24.560;2022-08-16T14:47:40;9.93;;;6.80;;
45326;SDS011;31062;49.678;24.560;2022-08-16T14:50:26;8.20;;;6.43;;
45326;SDS011;31062;49.678;24.560;2022-08-16T14:53:12;10.55;;;6.68;;
45326;SDS011;31062;49.678;24.560;2022-08-16T14:56:01;6.25;;;5.47;;
45326;SDS011;31062;49.678;24.560;2022-08-16T14:58:48;8.63;;;6.55;;
45326;SDS011;31062;49.678;24.560;2022-08-16T15:01:34;10.50;;;6.70;;
45326;SDS011;31062;49.678;24.560;2022-08-16T15:04:40;8.70;;;7.28;;
45326;SDS011;31062;49.678;24.560;2022-08-16T15:07:33;9.13;;;7.78;;
45326;SDS011;31062;49.678;24.560;2022-08-16T15:10:20;11.23;;;7.88;;
45326;SDS011;31062;49.678;24.560;2022-08-16T15:13:11;8.40;;;7.60;;
45326;SDS011;31062;49.678;24.560;2022-08-16T15:15:59;11.80;;;7.72;;
45326;SDS011;31062;49.678;24.560;2022-08-16T15:18:48;10.57;;;7.40;;
45326;SDS011;31062;49.678;24.560;2022-08-16T15:21:34;10.55;;;8.15;;
45326;SDS011;31062;49.678;24.560;2022-08-16T15:24:21;13.23;;;7.85;;
45326;SDS011;31062;49.678;24.560;2022-08-16T15:27:07;11.23;;;7.93;;
45326;SDS011;31062;49.678;24.560;2022-08-16T15:29:55;9.32;;;8.27;;
45326;SDS011;31062;49.678;24.560;2022-08-16T15:32:41;10.40;;;8.25;;
45326;SDS011;31062;49.678;24.560;2022-08-16T15:35:29;10.43;;;8.60;;
45326;SDS011;31062;49.678;24.560;2022-08-16T15:38:17;11.50;;;8.40;;
45326;SDS011;31062;49.678;24.560;2022-08-16T15:44:28;14.82;;;7.72;;
45326;SDS011;31062;49.678;24.560;2022-08-16T15:47:35;10.27;;;8.48;;
45326;SDS011;31062;49.678;24.560;2022-08-16T15:50:23;13.75;;;8.50;;
45326;SDS011;31062;49.678;24.560;2022-08-16T15:53:11;12.85;;;8.30;;
45326;SDS011;31062;49.678;24.560;2022-08-16T15:56:05;12.98;;;8.60;;
45326;SDS011;31062;49.678;24.560;2022-08-16T15:58:51;11.77;;;8.90;;
45326;SDS011;31062;49.678;24.560;2022-08-16T16:01:40;12.18;;;9.05;;
45326;SDS011;31062;49.678;24.560;2022-08-16T16:04:26;12.73;;;9.30;;
45326;SDS011;31062;49.678;24.560;2022-08-16T16:07:15;12.50;;;8.55;;
45326;SDS011;31062;49.678;24.560;2022-08-16T16:10:03;15.65;;;9.90;;
45326;SDS011;31062;49.678;24.560;2022-08-16T16:12:58;11.70;;;8.95;;
45326;SDS011;31062;49.678;24.560;2022-08-16T16:15:48;13.45;;;9.40;;
45326;SDS011;31062;49.678;24.560;2022-08-16T16:18:38;11.98;;;8.63;;
45326;SDS011;31062;49.678;24.560;2022-08-16T16:21:25;12.23;;;8.32;;
45326;SDS011;31062;49.678;24.560;2022-08-16T16:24:12;11.05;;;8.95;;
45326;SDS011;31062;49.678;24.560;2022-08-16T16:27:08;12.02;;;8.55;;
45326;SDS011;31062;49.678;24.560;2022-08-16T16:29:54;9.38;;;8.43;;
45326;SDS011;31062;49.678;24.560;2022-08-16T16:32:46;10.38;;;8.00;;
45326;SDS011;31062;49.678;24.560;2022-08-16T16:35:34;9.18;;;7.97;;
45326;SDS011;31062;49.678;24.560;2022-08-16T16:38:20;14.13;;;8.18;;
45326;SDS011;31062;49.678;24.560;2022-08-16T16:41:07;11.43;;;7.97;;
45326;SDS011;31062;49.678;24.560;2022-08-16T16:43:54;12.77;;;7.68;;
45326;SDS011;31062;49.678;24.560;2022-08-16T16:46:40;7.97;;;7.18;;
45326;SDS011;31062;49.678;24.560;2022-08-16T16:49:28;10.65;;;7.40;;
45326;SDS011;31062;49.678;24.560;2022-08-16T16:52:13;13.45;;;7.80;;
45326;SDS011;31062;49.678;24.560;2022-08-16T16:55:20;9.55;;;8.43;;
45326;SDS011;31062;49.678;24.560;2022-08-16T16:58:09;8.88;;;8.07;;
45326;SDS011;31062;49.678;24.560;2022-08-16T17:01:25;10.93;;;8.23;;
45326;SDS011;31062;49.678;24.560;2022-08-16T17:04:36;12.68;;;8.93;;
45326;SDS011;31062;49.678;24.560;2022-08-16T17:07:22;11.68;;;7.93;;
45326;SDS011;31062;49.678;24.560;2022-08-16T17:10:08;11.70;;;8.23;;
45326;SDS011;31062;49.678;24.560;2022-08-16T17:12:54;20.02;;;8.50;;
45326;SDS011;31062;49.678;24.560;2022-08-16T17:15:40;10.48;;;7.63;;